sensor_id;sensor_type;location;lat;lon;timestamp;P1;durP1;ratioP1;P2;durP2;ratioP2
81231;SDS011;70703;55.652;37.710;2024-03-22T00:00:08;20.25;;;10.95;;
81231;SDS011;70703;55.652;37.710;2024-03-22T00:00:25;23.92;;;11.07;;
81231;SDS011;70703;55.652;37.710;2024-03-22T00:00:36;24.77;;;11.30;;
81231;SDS011;70703;55.652;37.710;2024-03-22T00:00:49;25.45;;;11.27;;
81231;SDS011;70703;55.652;37.710;2024-03-22T00:01:01;25.88;;;11.60;;
81231;SDS011;70703;55.652;37.710;2024-03-22T00:01:13;26.80;;;11.80;;
81231;SDS011;70703;55.652;37.710;2024-03-22T00:01:26;25.33;;;11.60;;
81231;SDS011;70703;55.652;37.710;2024-03-22T00:01:37;25.70;;;11.52;;
81231;SDS011;70703;55.652;37.710;2024-03-22T00:01:49;25.10;;;11.45;;
81231;SDS011;70703;55.652;37.710;2024-03-22T00:02:02;25.10;;;11.35;;
81231;SDS011;70703;55.652;37.710;2024-03-22T00:02:14;25.55;;;11.60;;
81231;SDS011;70703;55.652;37.710;2024-03-22T00:02:25;24.60;;;11.85;;
81231;SDS011;70703;55.652;37.710;2024-03-22T00:02:38;22.63;;;11.48;;
81231;SDS011;70703;55.652;37.710;2024-03-22T00:02:50;22.08;;;11.05;;
81231;SDS011;70703;55.652;37.710;2024-03-22T00:03:03;23.60;;;11.25;;
81231;SDS011;70703;55.652;37.710;2024-03-22T00:03:15;24.40;;;10.77;;
81231;SDS011;70703;55.652;37.710;2024-03-22T00:03:28;24.50;;;10.95;;
81231;SDS011;70703;55.652;37.710;2024-03-22T00:03:41;27.17;;;11.18;;
81231;SDS011;70703;55.652;37.710;2024-03-22T00:03:53;26.05;;;11.38;;
81231;SDS011;70703;55.652;37.710;2024-03-22T00:04:04;23.45;;;11.07;;
81231;SDS011;70703;55.652;37.710;2024-03-22T00:04:16;25.42;;;11.13;;
81231;SDS011;70703;55.652;37.710;2024-03-22T00:04:29;26.65;;;10.93;;
81231;SDS011;70703;55.652;37.710;2024-03-22T00:04:41;27.75;;;10.93;;
81231;SDS011;70703;55.652;37.710;2024-03-22T00:04:53;28.17;;;10.85;;
81231;SDS011;70703;55.652;37.710;2024-03-22T00:05:07;26.20;;;10.30;;
81231;SDS011;70703;55.652;37.710;2024-03-22T00:05:19;26.30;;;10.75;;
81231;SDS011;70703;55.652;37.710;2024-03-22T00:05:32;26.45;;;11.32;;
81231;SDS011;70703;55.652;37.710;2024-03-22T00:05:44;25.40;;;11.45;;
81231;SDS011;70703;55.652;37.710;2024-03-22T00:06:15;28.08;;;11.10;;
81231;SDS011;70703;55.652;37.710;2024-03-22T00:06:27;27.40;;;11.15;;
81231;SDS011;70703;55.652;37.710;2024-03-22T00:06:44;25.70;;;11.10;;
81231;SDS011;70703;55.652;37.710;2024-03-22T00:06:59;26.08;;;11.88;;
81231;SDS011;70703;55.652;37.710;2024-03-22T00:07:10;24.00;;;12.00;;
81231;SDS011;70703;55.652;37.710;2024-03-22T00:07:23;24.17;;;11.73;;
81231;SDS011;70703;55.652;37.710;2024-03-22T00:07:34;25.35;;;11.75;;
81231;SDS011;70703;55.652;37.710;2024-03-22T00:07:47;26.52;;;11.70;;
81231;SDS011;70703;55.652;37.710;2024-03-22T00:07:59;29.02;;;11.68;;
81231;SDS011;70703;55.652;37.710;2024-03-22T00:08:10;25.55;;;11.07;;
81231;SDS011;70703;55.652;37.710;2024-03-22T00:08:22;25.90;;;10.90;;
81231;SDS011;70703;55.652;37.710;2024-03-22T00:08:34;26.23;;;10.82;;
81231;SDS011;70703;55.652;37.710;2024-03-22T00:08:47;27.52;;;10.75;;
81231;SDS011;70703;55.652;37.710;2024-03-22T00:08:59;24.98;;;11.10;;
81231;SDS011;70703;55.652;37.710;2024-03-22T00:09:11;28.13;;;11.40;;
81231;SDS011;70703;55.652;37.710;2024-03-22T00:09:23;26.90;;;11.52;;
81231;SDS011;70703;55.652;37.710;2024-03-22T00:09:34;25.30;;;11.75;;
81231;SDS011;70703;55.652;37.710;2024-03-22T00:09:47;25.10;;;11.73;;
81231;SDS011;70703;55.652;37.710;2024-03-22T00:09:59;25.45;;;11.45;;
81231;SDS011;70703;55.652;37.710;2024-03-22T00:10:11;23.73;;;10.88;;
81231;SDS011;70703;55.652;37.710;2024-03-22T00:10:23;24.13;;;10.82;;
81231;SDS011;70703;55.652;37.710;2024-03-22T00:10:36;26.23;;;11.32;;
81231;SDS011;70703;55.652;37.710;2024-03-22T00:10:49;29.02;;;11.35;;
81231;SDS011;70703;55.652;37.710;2024-03-22T00:11:01;28.23;;;10.98;;
81231;SDS011;70703;55.652;37.710;2024-03-22T00:11:14;25.77;;;11.10;;
81231;SDS011;70703;55.652;37.710;2024-03-22T00:11:26;26.52;;;11.43;;
81231;SDS011;70703;55.652;37.710;2024-03-22T00:11:38;26.45;;;11.82;;
81231;SDS011;70703;55.652;37.710;2024-03-22T00:11:50;27.02;;;11.88;;
81231;SDS011;70703;55.652;37.710;2024-03-22T00:12:01;26.55;;;11.35;;
81231;SDS011;70703;55.652;37.710;2024-03-22T00:12:14;30.20;;;11.43;;
81231;SDS011;70703;55.652;37.710;2024-03-22T00:12:26;26.45;;;11.00;;
81231;SDS011;70703;55.652;37.710;2024-03-22T00:12:37;24.85;;;11.00;;
81231;SDS011;70703;55.652;37.710;2024-03-22T00:12:50;26.42;;;11.30;;
81231;SDS011;70703;55.652;37.710;2024-03-22T00:13:03;26.90;;;11.48;;
81231;SDS011;70703;55.652;37.710;2024-03-22T00:13:16;26.20;;;11.95;;
81231;SDS011;70703;55.652;37.710;2024-03-22T00:13:27;26.08;;;11.88;;
81231;SDS011;70703;55.652;37.710;2024-03-22T00:13:41;26.70;;;11.30;;
81231;SDS011;70703;55.652;37.710;2024-03-22T00:13:52;26.13;;;11.15;;
81231;SDS011;70703;55.652;37.710;2024-03-22T00:14:05;24.13;;;11.32;;
81231;SDS011;70703;55.652;37.710;2024-03-22T00:14:16;23.35;;;11.38;;
81231;SDS011;70703;55.652;37.710;2024-03-22T00:14:28;23.52;;;11.30;;
81231;SDS011;70703;55.652;37.710;2024-03-22T00:14:41;23.70;;;11.43;;
81231;SDS011;70703;55.652;37.710;2024-03-22T00:14:52;25.48;;;11.63;;
81231;SDS011;70703;55.652;37.710;2024-03-22T00:15:07;26.67;;;11.70;;
81231;SDS011;70703;55.652;37.710;2024-03-22T00:15:19;28.23;;;11.32;;
81231;SDS011;70703;55.652;37.710;2024-03-22T00:15:31;27.33;;;11.50;;
81231;SDS011;70703;55.652;37.710;2024-03-22T00:15:43;26.95;;;11.40;;
81231;SDS011;70703;55.652;37.710;2024-03-22T00:15:56;25.92;;;11.27;;
81231;SDS011;70703;55.652;37.710;2024-03-22T00:16:08;24.80;;;11.13;;
81231;SDS011;70703;55.652;37.710;2024-03-22T00:16:20;23.65;;;11.00;;
81231;SDS011;70703;55.652;37.710;2024-03-22T00:16:31;24.75;;;11.20;;
81231;SDS011;70703;55.652;37.710;2024-03-22T00:16:43;26.50;;;11.38;;
81231;SDS011;70703;55.652;37.710;2024-03-22T00:16:54;29.67;;;11.55;;
81231;SDS011;70703;55.652;37.710;2024-03-22T00:17:06;29.27;;;11.45;;
81231;SDS011;70703;55.652;37.710;2024-03-22T00:17:18;28.85;;;11.15;;
81231;SDS011;70703;55.652;37.710;2024-03-22T00:17:31;24.27;;;10.75;;
81231;SDS011;70703;55.652;37.710;2024-03-22T00:17:45;23.10;;;11.13;;
81231;SDS011;70703;55.652;37.710;2024-03-22T00:17:57;25.30;;;11.82;;
81231;SDS011;70703;55.652;37.710;2024-03-22T00:18:09;25.65;;;12.27;;
81231;SDS011;70703;55.652;37.710;2024-03-22T00:18:21;26.77;;;12.70;;
81231;SDS011;70703;55.652;37.710;2024-03-22T00:18:33;26.75;;;12.60;;
81231;SDS011;70703;55.652;37.710;2024-03-22T00:18:44;26.65;;;12.55;;
81231;SDS011;70703;55.652;37.710;2024-03-22T00:18:57;24.55;;;12.20;;
81231;SDS011;70703;55.652;37.710;2024-03-22T00:19:10;25.80;;;12.15;;
81231;SDS011;70703;55.652;37.710;2024-03-22T00:19:22;26.77;;;11.80;;
81231;SDS011;70703;55.652;37.710;2024-03-22T00:19:33;26.52;;;11.70;;
81231;SDS011;70703;55.652;37.710;2024-03-22T00:19:46;31.70;;;11.68;;
81231;SDS011;70703;55.652;37.710;2024-03-22T00:19:57;30.27;;;11.57;;
81231;SDS011;70703;55.652;37.710;2024-03-22T00:20:11;27.73;;;11.40;;
81231;SDS011;70703;55.652;37.710;2024-03-22T00:20:23;22.88;;;11.55;;
81231;SDS011;70703;55.652;37.710;2024-03-22T00:20:34;23.60;;;11.68;;
81231;SDS011;70703;55.652;37.710;2024-03-22T00:20:47;25.10;;;11.85;;
81231;SDS011;70703;55.652;37.710;2024-03-22T00:20:59;26.45;;;11.70;;
81231;SDS011;70703;55.652;37.710;2024-03-22T00:21:14;26.08;;;11.75;;
81231;SDS011;70703;55.652;37.710;2024-03-22T00:21:25;27.23;;;11.77;;
81231;SDS011;70703;55.652;37.710;2024-03-22T00:21:36;28.75;;;11.93;;
81231;SDS011;70703;55.652;37.710;2024-03-22T00:21:48;27.58;;;11.75;;
81231;SDS011;70703;55.652;37.710;2024-03-22T00:22:00;25.02;;;11.25;;
81231;SDS011;70703;55.652;37.710;2024-03-22T00:22:12;26.73;;;11.13;;
81231;SDS011;70703;55.652;37.710;2024-03-22T00:22:24;31.65;;;11.73;;
81231;SDS011;70703;55.652;37.710;2024-03-22T00:22:35;33.83;;;12.23;;
81231;SDS011;70703;55.652;37.710;2024-03-22T00:22:47;31.33;;;12.30;;
81231;SDS011;70703;55.652;37.710;2024-03-22T00:22:58;26.48;;;12.18;;
81231;SDS011;70703;55.652;37.710;2024-03-22T00:23:10;26.42;;;12.02;;
81231;SDS011;70703;55.652;37.710;2024-03-22T00:23:21;26.38;;;11.95;;
81231;SDS011;70703;55.652;37.710;2024-03-22T00:23:34;26.13;;;12.15;;
81231;SDS011;70703;55.652;37.710;2024-03-22T00:23:48;26.25;;;12.25;;
81231;SDS011;70703;55.652;37.710;2024-03-22T00:24:00;26.85;;;11.88;;
81231;SDS011;70703;55.652;37.710;2024-03-22T00:24:14;27.17;;;11.75;;
81231;SDS011;70703;55.652;37.710;2024-03-22T00:24:25;30.60;;;12.15;;
81231;SDS011;70703;55.652;37.710;2024-03-22T00:24:38;30.38;;;12.43;;
81231;SDS011;70703;55.652;37.710;2024-03-22T00:24:51;26.92;;;12.02;;
81231;SDS011;70703;55.652;37.710;2024-03-22T00:25:03;23.63;;;12.13;;
81231;SDS011;70703;55.652;37.710;2024-03-22T00:25:17;22.10;;;11.73;;
81231;SDS011;70703;55.652;37.710;2024-03-22T00:25:29;23.08;;;11.63;;
81231;SDS011;70703;55.652;37.710;2024-03-22T00:25:42;24.50;;;11.80;;
81231;SDS011;70703;55.652;37.710;2024-03-22T00:25:54;24.20;;;12.02;;
81231;SDS011;70703;55.652;37.710;2024-03-22T00:26:07;23.65;;;12.15;;
81231;SDS011;70703;55.652;37.710;2024-03-22T00:26:19;25.05;;;12.13;;
81231;SDS011;70703;55.652;37.710;2024-03-22T00:26:32;23.48;;;11.68;;
81231;SDS011;70703;55.652;37.710;2024-03-22T00:26:44;25.42;;;11.68;;
81231;SDS011;70703;55.652;37.710;2024-03-22T00:27:00;27.48;;;11.68;;
81231;SDS011;70703;55.652;37.710;2024-03-22T00:27:13;25.25;;;11.80;;
81231;SDS011;70703;55.652;37.710;2024-03-22T00:27:24;23.38;;;11.60;;
81231;SDS011;70703;55.652;37.710;2024-03-22T00:27:35;23.75;;;11.85;;
81231;SDS011;70703;55.652;37.710;2024-03-22T00:27:47;25.25;;;12.30;;
81231;SDS011;70703;55.652;37.710;2024-03-22T00:27:59;31.95;;;12.80;;
81231;SDS011;70703;55.652;37.710;2024-03-22T00:28:11;31.65;;;12.50;;
81231;SDS011;70703;55.652;37.710;2024-03-22T00:28:23;29.48;;;12.02;;
81231;SDS011;70703;55.652;37.710;2024-03-22T00:28:36;25.27;;;12.00;;
81231;SDS011;70703;55.652;37.710;2024-03-22T00:28:47;25.40;;;12.40;;
81231;SDS011;70703;55.652;37.710;2024-03-22T00:28:58;28.17;;;12.82;;
81231;SDS011;70703;55.652;37.710;2024-03-22T00:29:10;29.38;;;12.68;;
81231;SDS011;70703;55.652;37.710;2024-03-22T00:29:22;27.77;;;12.80;;
81231;SDS011;70703;55.652;37.710;2024-03-22T00:29:33;29.88;;;13.00;;
81231;SDS011;70703;55.652;37.710;2024-03-22T00:29:45;27.92;;;13.02;;
81231;SDS011;70703;55.652;37.710;2024-03-22T00:29:56;26.35;;;12.95;;
81231;SDS011;70703;55.652;37.710;2024-03-22T00:30:10;26.27;;;12.75;;
81231;SDS011;70703;55.652;37.710;2024-03-22T00:30:22;29.05;;;12.65;;
81231;SDS011;70703;55.652;37.710;2024-03-22T00:30:33;28.92;;;12.52;;
81231;SDS011;70703;55.652;37.710;2024-03-22T00:30:46;27.25;;;12.75;;
81231;SDS011;70703;55.652;37.710;2024-03-22T00:30:57;26.88;;;12.77;;
81231;SDS011;70703;55.652;37.710;2024-03-22T00:31:09;27.42;;;12.75;;
81231;SDS011;70703;55.652;37.710;2024-03-22T00:31:22;26.98;;;12.70;;
81231;SDS011;70703;55.652;37.710;2024-03-22T00:31:35;28.70;;;12.73;;
81231;SDS011;70703;55.652;37.710;2024-03-22T00:31:47;29.13;;;12.77;;
81231;SDS011;70703;55.652;37.710;2024-03-22T00:31:58;28.10;;;13.00;;
81231;SDS011;70703;55.652;37.710;2024-03-22T00:32:10;29.70;;;13.13;;
81231;SDS011;70703;55.652;37.710;2024-03-22T00:32:23;28.58;;;13.07;;
81231;SDS011;70703;55.652;37.710;2024-03-22T00:32:34;27.35;;;13.05;;
81231;SDS011;70703;55.652;37.710;2024-03-22T00:32:46;27.45;;;12.75;;
81231;SDS011;70703;55.652;37.710;2024-03-22T00:32:58;28.60;;;12.88;;
81231;SDS011;70703;55.652;37.710;2024-03-22T00:33:10;27.98;;;12.88;;
81231;SDS011;70703;55.652;37.710;2024-03-22T00:33:22;26.63;;;12.88;;
81231;SDS011;70703;55.652;37.710;2024-03-22T00:33:34;25.23;;;13.10;;
81231;SDS011;70703;55.652;37.710;2024-03-22T00:33:45;28.63;;;13.25;;
81231;SDS011;70703;55.652;37.710;2024-03-22T00:33:57;29.20;;;13.00;;
81231;SDS011;70703;55.652;37.710;2024-03-22T00:34:09;29.52;;;12.85;;
81231;SDS011;70703;55.652;37.710;2024-03-22T00:34:23;29.48;;;12.85;;
81231;SDS011;70703;55.652;37.710;2024-03-22T00:34:35;29.58;;;12.98;;
81231;SDS011;70703;55.652;37.710;2024-03-22T00:34:46;25.80;;;12.93;;
81231;SDS011;70703;55.652;37.710;2024-03-22T00:34:58;28.00;;;12.70;;
81231;SDS011;70703;55.652;37.710;2024-03-22T00:35:11;29.63;;;13.00;;
81231;SDS011;70703;55.652;37.710;2024-03-22T00:35:23;29.80;;;13.02;;
81231;SDS011;70703;55.652;37.710;2024-03-22T00:35:35;28.13;;;13.10;;
81231;SDS011;70703;55.652;37.710;2024-03-22T00:35:48;28.73;;;12.98;;
81231;SDS011;70703;55.652;37.710;2024-03-22T00:35:59;28.73;;;13.30;;
81231;SDS011;70703;55.652;37.710;2024-03-22T00:36:11;27.48;;;13.05;;
81231;SDS011;70703;55.652;37.710;2024-03-22T00:36:22;25.48;;;12.25;;
81231;SDS011;70703;55.652;37.710;2024-03-22T00:36:34;25.52;;;12.15;;
81231;SDS011;70703;55.652;37.710;2024-03-22T00:36:46;23.40;;;11.88;;
81231;SDS011;70703;55.652;37.710;2024-03-22T00:36:58;24.38;;;12.35;;
81231;SDS011;70703;55.652;37.710;2024-03-22T00:37:10;26.17;;;12.77;;
81231;SDS011;70703;55.652;37.710;2024-03-22T00:37:21;26.92;;;12.68;;
81231;SDS011;70703;55.652;37.710;2024-03-22T00:37:33;26.65;;;12.50;;
81231;SDS011;70703;55.652;37.710;2024-03-22T00:37:46;26.65;;;12.43;;
81231;SDS011;70703;55.652;37.710;2024-03-22T00:37:58;25.20;;;12.35;;
81231;SDS011;70703;55.652;37.710;2024-03-22T00:38:10;24.95;;;12.63;;
81231;SDS011;70703;55.652;37.710;2024-03-22T00:38:21;25.77;;;12.75;;
81231;SDS011;70703;55.652;37.710;2024-03-22T00:38:36;27.60;;;13.15;;
81231;SDS011;70703;55.652;37.710;2024-03-22T00:38:47;26.33;;;13.13;;
81231;SDS011;70703;55.652;37.710;2024-03-22T00:38:58;27.65;;;12.95;;
81231;SDS011;70703;55.652;37.710;2024-03-22T00:39:11;29.50;;;12.70;;
81231;SDS011;70703;55.652;37.710;2024-03-22T00:39:23;30.63;;;12.55;;
81231;SDS011;70703;55.652;37.710;2024-03-22T00:39:35;27.25;;;12.68;;
81231;SDS011;70703;55.652;37.710;2024-03-22T00:39:47;26.02;;;12.45;;
81231;SDS011;70703;55.652;37.710;2024-03-22T00:39:58;24.77;;;12.18;;
81231;SDS011;70703;55.652;37.710;2024-03-22T00:40:11;24.20;;;12.15;;
81231;SDS011;70703;55.652;37.710;2024-03-22T00:40:25;26.80;;;12.68;;
81231;SDS011;70703;55.652;37.710;2024-03-22T00:40:37;27.58;;;12.80;;
81231;SDS011;70703;55.652;37.710;2024-03-22T00:40:49;27.33;;;12.20;;
81231;SDS011;70703;55.652;37.710;2024-03-22T00:41:03;26.42;;;11.98;;
81231;SDS011;70703;55.652;37.710;2024-03-22T00:41:15;23.70;;;12.13;;
81231;SDS011;70703;55.652;37.710;2024-03-22T00:41:28;25.67;;;12.35;;
81231;SDS011;70703;55.652;37.710;2024-03-22T00:41:40;26.05;;;12.43;;
81231;SDS011;70703;55.652;37.710;2024-03-22T00:41:53;24.83;;;12.65;;
81231;SDS011;70703;55.652;37.710;2024-03-22T00:42:06;27.27;;;13.40;;
81231;SDS011;70703;55.652;37.710;2024-03-22T00:42:19;27.77;;;13.30;;
81231;SDS011;70703;55.652;37.710;2024-03-22T00:42:30;27.55;;;13.25;;
81231;SDS011;70703;55.652;37.710;2024-03-22T00:42:42;25.40;;;12.70;;
81231;SDS011;70703;55.652;37.710;2024-03-22T00:42:54;28.02;;;12.55;;
81231;SDS011;70703;55.652;37.710;2024-03-22T00:43:07;27.45;;;12.60;;
81231;SDS011;70703;55.652;37.710;2024-03-22T00:43:19;25.85;;;12.93;;
81231;SDS011;70703;55.652;37.710;2024-03-22T00:43:31;24.75;;;12.52;;
81231;SDS011;70703;55.652;37.710;2024-03-22T00:43:43;23.23;;;11.98;;
81231;SDS011;70703;55.652;37.710;2024-03-22T00:43:55;23.83;;;11.77;;
81231;SDS011;70703;55.652;37.710;2024-03-22T00:44:07;24.83;;;12.07;;
81231;SDS011;70703;55.652;37.710;2024-03-22T00:44:20;25.95;;;12.10;;
81231;SDS011;70703;55.652;37.710;2024-03-22T00:44:32;29.83;;;12.38;;
81231;SDS011;70703;55.652;37.710;2024-03-22T00:44:44;29.73;;;12.18;;
81231;SDS011;70703;55.652;37.710;2024-03-22T00:44:56;27.40;;;11.82;;
81231;SDS011;70703;55.652;37.710;2024-03-22T00:45:11;24.98;;;11.77;;
81231;SDS011;70703;55.652;37.710;2024-03-22T00:45:23;25.77;;;12.00;;
81231;SDS011;70703;55.652;37.710;2024-03-22T00:45:36;26.83;;;12.00;;
81231;SDS011;70703;55.652;37.710;2024-03-22T00:45:49;25.65;;;12.25;;
81231;SDS011;70703;55.652;37.710;2024-03-22T00:46:00;24.33;;;12.10;;
81231;SDS011;70703;55.652;37.710;2024-03-22T00:46:14;26.95;;;12.13;;
81231;SDS011;70703;55.652;37.710;2024-03-22T00:46:26;28.38;;;11.90;;
81231;SDS011;70703;55.652;37.710;2024-03-22T00:46:38;28.48;;;12.25;;
81231;SDS011;70703;55.652;37.710;2024-03-22T00:46:49;25.10;;;12.93;;
81231;SDS011;70703;55.652;37.710;2024-03-22T00:47:01;26.33;;;13.40;;
81231;SDS011;70703;55.652;37.710;2024-03-22T00:47:13;26.02;;;13.02;;
81231;SDS011;70703;55.652;37.710;2024-03-22T00:47:28;26.48;;;12.57;;
81231;SDS011;70703;55.652;37.710;2024-03-22T00:47:40;25.70;;;12.55;;
81231;SDS011;70703;55.652;37.710;2024-03-22T00:47:50;24.33;;;12.45;;
81231;SDS011;70703;55.652;37.710;2024-03-22T00:48:04;26.95;;;12.50;;
81231;SDS011;70703;55.652;37.710;2024-03-22T00:48:17;29.52;;;12.60;;
81231;SDS011;70703;55.652;37.710;2024-03-22T00:48:29;28.70;;;12.36;;
81231;SDS011;70703;55.652;37.710;2024-03-22T00:48:41;28.90;;;12.20;;
81231;SDS011;70703;55.652;37.710;2024-03-22T00:48:52;28.20;;;12.25;;
81231;SDS011;70703;55.652;37.710;2024-03-22T00:49:04;28.30;;;12.38;;
81231;SDS011;70703;55.652;37.710;2024-03-22T00:49:16;25.83;;;12.32;;
81231;SDS011;70703;55.652;37.710;2024-03-22T00:49:28;28.33;;;12.10;;
81231;SDS011;70703;55.652;37.710;2024-03-22T00:49:40;28.60;;;12.20;;
81231;SDS011;70703;55.652;37.710;2024-03-22T00:49:51;29.02;;;12.50;;
81231;SDS011;70703;55.652;37.710;2024-03-22T00:50:04;28.10;;;12.45;;
81231;SDS011;70703;55.652;37.710;2024-03-22T00:50:19;22.90;;;11.90;;
81231;SDS011;70703;55.652;37.710;2024-03-22T00:50:32;21.98;;;11.80;;
81231;SDS011;70703;55.652;37.710;2024-03-22T00:50:45;25.83;;;12.07;;
81231;SDS011;70703;55.652;37.710;2024-03-22T00:50:57;28.48;;;12.73;;
81231;SDS011;70703;55.652;37.710;2024-03-22T00:51:09;26.23;;;12.80;;
81231;SDS011;70703;55.652;37.710;2024-03-22T00:51:21;29.55;;;12.95;;
81231;SDS011;70703;55.652;37.710;2024-03-22T00:51:34;29.02;;;12.57;;
81231;SDS011;70703;55.652;37.710;2024-03-22T00:51:46;27.95;;;12.70;;
81231;SDS011;70703;55.652;37.710;2024-03-22T00:51:59;26.25;;;13.00;;
81231;SDS011;70703;55.652;37.710;2024-03-22T00:52:12;27.10;;;12.45;;
81231;SDS011;70703;55.652;37.710;2024-03-22T00:52:23;28.15;;;12.27;;
81231;SDS011;70703;55.652;37.710;2024-03-22T00:52:35;27.05;;;12.13;;
81231;SDS011;70703;55.652;37.710;2024-03-22T00:52:47;27.55;;;12.45;;
81231;SDS011;70703;55.652;37.710;2024-03-22T00:52:59;24.95;;;12.20;;
81231;SDS011;70703;55.652;37.710;2024-03-22T00:53:14;23.58;;;11.95;;
81231;SDS011;70703;55.652;37.710;2024-03-22T00:53:26;22.63;;;12.55;;
81231;SDS011;70703;55.652;37.710;2024-03-22T00:53:38;22.10;;;12.52;;
81231;SDS011;70703;55.652;37.710;2024-03-22T00:53:49;24.45;;;12.15;;
81231;SDS011;70703;55.652;37.710;2024-03-22T00:54:01;24.48;;;11.82;;
81231;SDS011;70703;55.652;37.710;2024-03-22T00:54:12;40.72;;;22.45;;
81231;SDS011;70703;55.652;37.710;2024-03-22T00:54:25;135.90;;;78.65;;
81231;SDS011;70703;55.652;37.710;2024-03-22T00:54:37;171.93;;;98.90;;
81231;SDS011;70703;55.652;37.710;2024-03-22T00:54:51;108.70;;;60.85;;
81231;SDS011;70703;55.652;37.710;2024-03-22T00:55:04;52.55;;;27.95;;
81231;SDS011;70703;55.652;37.710;2024-03-22T00:55:16;30.10;;;14.50;;
81231;SDS011;70703;55.652;37.710;2024-03-22T00:55:28;25.85;;;12.55;;
81231;SDS011;70703;55.652;37.710;2024-03-22T00:55:39;26.08;;;12.27;;
81231;SDS011;70703;55.652;37.710;2024-03-22T00:55:51;28.25;;;12.90;;
81231;SDS011;70703;55.652;37.710;2024-03-22T00:56:05;47.63;;;26.00;;
81231;SDS011;70703;55.652;37.710;2024-03-22T00:56:17;260.55;;;175.02;;
81231;SDS011;70703;55.652;37.710;2024-03-22T00:56:29;328.52;;;216.07;;
81231;SDS011;70703;55.652;37.710;2024-03-22T00:56:42;258.20;;;164.02;;
81231;SDS011;70703;55.652;37.710;2024-03-22T00:56:54;83.20;;;44.85;;
81231;SDS011;70703;55.652;37.710;2024-03-22T00:57:08;39.25;;;19.45;;
81231;SDS011;70703;55.652;37.710;2024-03-22T00:57:19;30.60;;;13.57;;
81231;SDS011;70703;55.652;37.710;2024-03-22T00:57:33;30.65;;;12.55;;
81231;SDS011;70703;55.652;37.710;2024-03-22T00:57:44;26.74;;;12.00;;
81231;SDS011;70703;55.652;37.710;2024-03-22T00:57:55;28.88;;;12.02;;
81231;SDS011;70703;55.652;37.710;2024-03-22T00:58:08;30.63;;;12.10;;
81231;SDS011;70703;55.652;37.710;2024-03-22T00:58:20;27.55;;;12.27;;
81231;SDS011;70703;55.652;37.710;2024-03-22T00:58:33;24.35;;;12.18;;
81231;SDS011;70703;55.652;37.710;2024-03-22T00:58:44;23.85;;;12.07;;
81231;SDS011;70703;55.652;37.710;2024-03-22T00:58:57;27.33;;;12.90;;
81231;SDS011;70703;55.652;37.710;2024-03-22T00:59:10;25.92;;;13.18;;
81231;SDS011;70703;55.652;37.710;2024-03-22T00:59:22;25.15;;;12.50;;
81231;SDS011;70703;55.652;37.710;2024-03-22T00:59:34;24.98;;;12.40;;
81231;SDS011;70703;55.652;37.710;2024-03-22T00:59:46;23.98;;;12.45;;
81231;SDS011;70703;55.652;37.710;2024-03-22T00:59:57;23.58;;;12.15;;
81231;SDS011;70703;55.652;37.710;2024-03-22T01:00:11;25.95;;;12.07;;
81231;SDS011;70703;55.652;37.710;2024-03-22T01:00:24;30.23;;;12.35;;
81231;SDS011;70703;55.652;37.710;2024-03-22T01:00:36;29.08;;;12.23;;
81231;SDS011;70703;55.652;37.710;2024-03-22T01:00:48;27.60;;;12.65;;
81231;SDS011;70703;55.652;37.710;2024-03-22T01:01:03;28.27;;;12.85;;
81231;SDS011;70703;55.652;37.710;2024-03-22T01:01:15;30.75;;;12.85;;
81231;SDS011;70703;55.652;37.710;2024-03-22T01:01:27;29.46;;;12.60;;
81231;SDS011;70703;55.652;37.710;2024-03-22T01:01:40;30.08;;;12.50;;
81231;SDS011;70703;55.652;37.710;2024-03-22T01:01:51;30.60;;;12.45;;
81231;SDS011;70703;55.652;37.710;2024-03-22T01:02:02;30.15;;;12.32;;
81231;SDS011;70703;55.652;37.710;2024-03-22T01:02:15;29.85;;;12.27;;
81231;SDS011;70703;55.652;37.710;2024-03-22T01:02:28;29.88;;;12.65;;
81231;SDS011;70703;55.652;37.710;2024-03-22T01:02:40;29.05;;;12.38;;
81231;SDS011;70703;55.652;37.710;2024-03-22T01:02:52;29.73;;;12.10;;
81231;SDS011;70703;55.652;37.710;2024-03-22T01:03:04;27.67;;;11.77;;
81231;SDS011;70703;55.652;37.710;2024-03-22T01:03:17;32.83;;;11.93;;
81231;SDS011;70703;55.652;37.710;2024-03-22T01:03:29;30.20;;;12.02;;
81231;SDS011;70703;55.652;37.710;2024-03-22T01:03:41;26.90;;;11.57;;
81231;SDS011;70703;55.652;37.710;2024-03-22T01:03:54;24.80;;;11.50;;
81231;SDS011;70703;55.652;37.710;2024-03-22T01:04:08;26.40;;;11.60;;
81231;SDS011;70703;55.652;37.710;2024-03-22T01:04:20;26.88;;;11.52;;
81231;SDS011;70703;55.652;37.710;2024-03-22T01:04:33;26.88;;;11.63;;
81231;SDS011;70703;55.652;37.710;2024-03-22T01:04:46;27.20;;;12.18;;
81231;SDS011;70703;55.652;37.710;2024-03-22T01:04:57;27.13;;;12.32;;
81231;SDS011;70703;55.652;37.710;2024-03-22T01:05:08;28.70;;;11.98;;
81231;SDS011;70703;55.652;37.710;2024-03-22T01:05:20;29.75;;;12.13;;
81231;SDS011;70703;55.652;37.710;2024-03-22T01:05:31;28.40;;;12.02;;
81231;SDS011;70703;55.652;37.710;2024-03-22T01:05:44;23.25;;;11.93;;
81231;SDS011;70703;55.652;37.710;2024-03-22T01:05:57;24.63;;;12.25;;
81231;SDS011;70703;55.652;37.710;2024-03-22T01:06:09;30.33;;;12.68;;
81231;SDS011;70703;55.652;37.710;2024-03-22T01:06:20;28.92;;;12.40;;
81231;SDS011;70703;55.652;37.710;2024-03-22T01:06:35;25.10;;;12.23;;
81231;SDS011;70703;55.652;37.710;2024-03-22T01:06:47;24.88;;;11.90;;
81231;SDS011;70703;55.652;37.710;2024-03-22T01:07:00;23.75;;;11.75;;
81231;SDS011;70703;55.652;37.710;2024-03-22T01:07:12;23.65;;;11.60;;
81231;SDS011;70703;55.652;37.710;2024-03-22T01:07:25;23.25;;;11.43;;
81231;SDS011;70703;55.652;37.710;2024-03-22T01:07:37;21.52;;;11.15;;
81231;SDS011;70703;55.652;37.710;2024-03-22T01:07:50;22.10;;;11.27;;
81231;SDS011;70703;55.652;37.710;2024-03-22T01:08:02;23.42;;;11.05;;
81231;SDS011;70703;55.652;37.710;2024-03-22T01:08:15;24.55;;;10.80;;
81231;SDS011;70703;55.652;37.710;2024-03-22T01:08:28;25.15;;;11.25;;
81231;SDS011;70703;55.652;37.710;2024-03-22T01:08:40;25.77;;;11.75;;
81231;SDS011;70703;55.652;37.710;2024-03-22T01:08:52;29.10;;;12.13;;
81231;SDS011;70703;55.652;37.710;2024-03-22T01:09:05;27.92;;;12.43;;
81231;SDS011;70703;55.652;37.710;2024-03-22T01:09:20;28.48;;;12.65;;
81231;SDS011;70703;55.652;37.710;2024-03-22T01:09:32;30.45;;;12.35;;
81231;SDS011;70703;55.652;37.710;2024-03-22T01:09:43;30.05;;;12.48;;
81231;SDS011;70703;55.652;37.710;2024-03-22T01:09:55;27.58;;;12.48;;
81231;SDS011;70703;55.652;37.710;2024-03-22T01:10:07;27.13;;;12.63;;
81231;SDS011;70703;55.652;37.710;2024-03-22T01:10:20;26.27;;;12.48;;
81231;SDS011;70703;55.652;37.710;2024-03-22T01:10:32;26.95;;;12.70;;
81231;SDS011;70703;55.652;37.710;2024-03-22T01:10:49;27.58;;;12.55;;
81231;SDS011;70703;55.652;37.710;2024-03-22T01:11:02;28.00;;;12.20;;
81231;SDS011;70703;55.652;37.710;2024-03-22T01:11:14;27.50;;;12.18;;